createdAt,value
2022-08-26T00:02:15.363Z,39
2022-08-26T00:05:14.931Z,44
2022-08-26T00:07:14.942Z,42
2022-08-26T00:10:14.952Z,44
2022-08-26T00:13:14.964Z,33
2022-08-26T00:16:15.020Z,65
2022-08-26T00:19:14.918Z,36
2022-08-26T00:21:14.941Z,41
2022-08-26T00:23:14.967Z,35
2022-08-26T00:25:15.174Z,49
2022-08-26T00:28:15.008Z,38
2022-08-26T00:31:14.942Z,37
2022-08-26T00:34:15.374Z,46
2022-08-26T00:36:20.177Z,51
2022-08-26T00:38:14.980Z,60
2022-08-26T00:41:14.945Z,33
2022-08-26T00:43:14.961Z,42
2022-08-26T00:46:14.994Z,61
2022-08-26T00:48:14.969Z,59
2022-08-26T00:50:14.959Z,46
2022-08-26T00:53:14.957Z,40
2022-08-26T00:56:14.956Z,34
2022-08-26T00:59:14.950Z,43
2022-08-26T01:01:15.049Z,35
2022-08-26T01:06:14.951Z,94
2022-08-26T01:08:14.964Z,44
2022-08-26T01:11:14.948Z,34
2022-08-26T01:13:14.974Z,38
2022-08-26T01:16:15.018Z,33
2022-08-26T01:18:14.955Z,53
2022-08-26T01:21:14.969Z,62
2022-08-26T01:24:14.962Z,33
2022-08-26T01:26:15.318Z,36
2022-08-26T01:28:14.938Z,38
2022-08-26T01:31:14.965Z,38
2022-08-26T01:33:14.955Z,44
2022-08-26T01:36:14.931Z,42
2022-08-26T01:38:22.120Z,46
2022-08-26T01:42:14.967Z,36
2022-08-26T01:45:15.676Z,57
2022-08-26T01:48:14.947Z,36
2022-08-26T01:51:14.980Z,50
2022-08-26T01:53:14.967Z,36
2022-08-26T01:55:14.988Z,34
2022-08-26T01:58:14.944Z,42
2022-08-26T02:00:16.145Z,39
2022-08-26T02:03:14.956Z,36
2022-08-26T02:05:15.017Z,39
2022-08-26T02:08:14.963Z,44
2022-08-26T02:10:14.977Z,39
2022-08-26T02:13:14.982Z,38
2022-08-26T02:16:15.045Z,39
2022-08-26T02:18:14.985Z,42
2022-08-26T02:21:14.982Z,39
2022-08-26T02:23:14.978Z,49
2022-08-26T02:26:16.524Z,54
2022-08-26T02:29:14.984Z,38
2022-08-26T02:31:15.068Z,37
2022-08-26T02:34:15.165Z,37
2022-08-26T02:36:14.997Z,38
2022-08-26T02:39:18.026Z,42
2022-08-26T02:41:15.021Z,55
2022-08-26T02:44:14.974Z,46
2022-08-26T02:46:47.421Z,44
2022-08-26T02:48:14.960Z,39
2022-08-26T02:50:14.994Z,39
2022-08-26T02:52:15.000Z,52
2022-08-26T02:55:14.981Z,38
2022-08-26T02:57:15.009Z,45
2022-08-26T02:59:15.047Z,39
2022-08-26T03:02:15.098Z,62
2022-08-26T03:04:15.265Z,46
2022-08-26T03:07:15.003Z,60
2022-08-26T03:09:18.593Z,48
2022-08-26T03:12:14.997Z,49
2022-08-26T03:14:15.016Z,59
2022-08-26T03:17:15.011Z,51
2022-08-26T03:19:14.989Z,40
2022-08-26T03:22:14.995Z,46
2022-08-26T03:25:15.021Z,40
2022-08-26T03:27:15.040Z,42
2022-08-26T03:30:15.015Z,49
2022-08-26T03:33:15.036Z,37
2022-08-26T03:36:15.054Z,70
2022-08-26T03:39:15.039Z,40
2022-08-26T03:42:14.999Z,43
2022-08-26T03:44:15.035Z,63
2022-08-26T03:47:14.993Z,82
2022-08-26T03:49:15.186Z,59
2022-08-26T03:52:15.037Z,45
2022-08-26T03:55:15.024Z,70
2022-08-26T03:58:14.989Z,57
2022-08-26T04:00:15.029Z,41
2022-08-26T04:02:15.040Z,41
2022-08-26T04:05:15.054Z,45
2022-08-26T04:08:15.060Z,38
2022-08-26T04:11:15.051Z,67
2022-08-26T04:14:17.546Z,52
2022-08-26T04:16:15.080Z,46
2022-08-26T04:19:15.011Z,42
2022-08-26T04:21:15.261Z,40
2022-08-26T04:23:15.038Z,48
2022-08-26T04:26:15.040Z,50
2022-08-26T04:29:15.018Z,54
2022-08-26T04:32:15.040Z,45
2022-08-26T04:35:15.026Z,44
2022-08-26T04:38:15.046Z,60
2022-08-26T04:41:16.933Z,87
2022-08-26T04:44:15.041Z,40
2022-08-26T04:46:15.161Z,46
2022-08-26T04:49:15.032Z,48
2022-08-26T04:52:15.039Z,54
2022-08-26T04:54:15.045Z,42
2022-08-26T04:57:15.011Z,52
2022-08-26T05:00:15.032Z,42
2022-08-26T05:02:15.055Z,45
2022-08-26T05:05:14.992Z,47
2022-08-26T05:07:15.056Z,76
2022-08-26T05:10:15.074Z,45
2022-08-26T05:13:15.661Z,57
2022-08-26T05:15:15.060Z,60
2022-08-26T05:18:15.057Z,55
2022-08-26T05:20:15.083Z,43
2022-08-26T05:23:15.026Z,51
2022-08-26T05:25:15.054Z,45
2022-08-26T05:28:15.029Z,44
2022-08-26T05:33:15.355Z,83
2022-08-26T05:36:15.067Z,53
2022-08-26T05:38:15.259Z,55
2022-08-26T05:41:15.083Z,65
2022-08-26T05:44:15.094Z,57
2022-08-26T05:47:15.040Z,68
2022-08-26T05:49:15.062Z,83
2022-08-26T05:51:15.073Z,58
2022-08-26T05:54:15.763Z,42
2022-08-26T05:56:15.066Z,54
2022-08-26T05:58:15.094Z,57
2022-08-26T06:00:15.093Z,44
2022-08-26T06:02:15.098Z,54
2022-08-26T06:05:15.063Z,62
2022-08-26T06:07:15.090Z,64
2022-08-26T06:10:31.390Z,59
2022-08-26T06:12:15.170Z,53
2022-08-26T06:14:15.107Z,55
2022-08-26T06:17:15.092Z,54
2022-08-26T06:20:15.080Z,61
2022-08-26T06:23:15.109Z,66
2022-08-26T06:26:15.086Z,66
2022-08-26T06:29:23.671Z,91
2022-08-26T06:31:15.127Z,55
2022-08-26T06:34:15.025Z,45
2022-08-26T06:36:15.085Z,56
2022-08-26T06:38:15.102Z,65
2022-08-26T06:40:15.160Z,39
2022-08-26T06:43:15.076Z,65
2022-08-26T06:45:15.105Z,86
2022-08-26T06:48:15.081Z,52
2022-08-26T06:51:15.066Z,43
2022-08-26T06:54:15.069Z,46
2022-08-26T06:56:15.097Z,77
2022-08-26T06:58:15.107Z,50
2022-08-26T07:01:15.131Z,63
2022-08-26T07:03:15.120Z,48
2022-08-26T07:06:15.077Z,50
2022-08-26T07:08:15.072Z,63
2022-08-26T07:11:15.106Z,73
2022-08-26T07:14:15.072Z,58
2022-08-26T07:16:15.130Z,60
2022-08-26T07:19:15.112Z,96
2022-08-26T07:22:15.105Z,53
2022-08-26T07:25:30.425Z,70
2022-08-26T07:27:15.190Z,50
2022-08-26T07:30:15.107Z,73
2022-08-26T07:33:15.082Z,55
2022-08-26T07:35:15.100Z,74
2022-08-26T07:37:15.152Z,66
2022-08-26T07:40:47.552Z,71
2022-08-26T07:42:15.093Z,41
2022-08-26T07:45:15.109Z,49
2022-08-26T07:48:15.081Z,53
2022-08-26T07:51:15.105Z,67
2022-08-26T07:53:15.129Z,51
2022-08-26T07:55:15.141Z,71
2022-08-26T07:57:15.638Z,60
2022-08-26T08:00:15.104Z,47
2022-08-26T08:03:15.122Z,66
2022-08-26T08:05:15.168Z,57
2022-08-26T08:08:27.453Z,49
2022-08-26T08:10:15.129Z,45
2022-08-26T08:13:15.111Z,56
2022-08-26T08:15:15.099Z,40
2022-08-26T08:18:15.691Z,42
2022-08-26T08:20:15.108Z,90
2022-08-26T08:22:17.031Z,47
2022-08-26T08:25:15.108Z,56
2022-08-26T08:27:17.205Z,42
2022-08-26T08:30:15.116Z,53
2022-08-26T08:33:15.155Z,51
2022-08-26T08:36:18.520Z,63
2022-08-26T08:38:15.126Z,58
2022-08-26T08:41:15.097Z,59
2022-08-26T08:43:15.108Z,46
2022-08-26T08:45:15.133Z,59
2022-08-26T08:48:15.104Z,40
2022-08-26T08:50:15.145Z,65
2022-08-26T08:53:15.119Z,75
2022-08-26T08:55:18.004Z,51
2022-08-26T08:58:15.125Z,105
2022-08-26T09:01:15.167Z,47
2022-08-26T09:03:15.125Z,42
2022-08-26T09:05:15.365Z,51
2022-08-26T09:08:15.122Z,52
2022-08-26T09:10:15.128Z,93
2022-08-26T09:12:15.126Z,54
2022-08-26T09:14:15.567Z,75
2022-08-26T09:17:15.125Z,61
2022-08-26T09:19:15.134Z,79
2022-08-26T09:21:15.155Z,38
2022-08-26T09:23:15.137Z,74
2022-08-26T09:26:15.131Z,70
2022-08-26T09:29:15.206Z,36
2022-08-26T09:31:15.185Z,67
2022-08-26T09:34:17.037Z,90
2022-08-26T09:37:15.142Z,56
2022-08-26T09:39:15.236Z,70
2022-08-26T09:42:16.738Z,52
2022-08-26T09:45:15.124Z,60
2022-08-26T09:48:17.243Z,33
2022-08-26T09:50:15.214Z,82
2022-08-26T09:53:15.125Z,114
2022-08-26T09:55:15.550Z,109
2022-08-26T09:58:15.143Z,60
2022-08-26T10:01:15.179Z,45
2022-08-26T10:04:15.181Z,65
2022-08-26T10:06:15.148Z,58
2022-08-26T10:09:15.169Z,69
2022-08-26T10:12:15.175Z,84
2022-08-26T10:15:15.179Z,46
2022-08-26T10:18:15.163Z,62
2022-08-26T10:20:22.998Z,71
2022-08-26T10:23:15.172Z,54
2022-08-26T10:26:15.197Z,68
2022-08-26T10:29:15.176Z,39
2022-08-26T10:31:15.480Z,38
2022-08-26T10:34:15.158Z,75
2022-08-26T10:37:16.330Z,64
2022-08-26T10:40:15.220Z,40
2022-08-26T10:42:15.198Z,34
2022-08-26T10:45:15.423Z,40
2022-08-26T10:48:15.119Z,49
2022-08-26T10:50:15.183Z,45
2022-08-26T10:53:15.145Z,67
2022-08-26T10:56:15.974Z,80
2022-08-26T10:58:15.610Z,67
2022-08-26T11:01:15.947Z,47
2022-08-26T11:04:15.226Z,38
2022-08-26T11:06:15.194Z,55
2022-08-26T11:09:15.198Z,86
2022-08-26T11:12:15.202Z,61
2022-08-26T11:15:15.220Z,52
2022-08-26T11:18:15.371Z,49
2022-08-26T11:21:15.154Z,58
2022-08-26T11:23:15.176Z,36
2022-08-26T11:25:15.160Z,60
2022-08-26T11:28:15.162Z,45
2022-08-26T11:31:15.219Z,58
2022-08-26T11:33:15.608Z,42
2022-08-26T11:36:15.196Z,63
2022-08-26T11:39:15.150Z,85
2022-08-26T11:41:15.200Z,35
2022-08-26T11:44:15.197Z,42
2022-08-26T11:47:15.171Z,59
2022-08-26T11:49:15.184Z,64
2022-08-26T11:52:15.171Z,86
2022-08-26T11:54:15.874Z,68
2022-08-26T11:56:15.178Z,39
2022-08-26T11:58:15.206Z,43
2022-08-26T12:01:15.228Z,57
2022-08-26T12:03:15.359Z,52
2022-08-26T12:06:15.234Z,39
2022-08-26T12:08:15.199Z,88
2022-08-26T12:10:15.190Z,57
2022-08-26T12:13:15.185Z,65
2022-08-26T12:15:15.183Z,56
2022-08-26T12:17:15.205Z,47
2022-08-26T12:20:15.159Z,38
2022-08-26T12:22:15.173Z,83
2022-08-26T12:25:15.176Z,38
2022-08-26T12:28:15.198Z,41
2022-08-26T12:31:15.244Z,52
2022-08-26T12:33:22.616Z,56
2022-08-26T12:35:15.184Z,34
2022-08-26T12:37:15.217Z,37
2022-08-26T12:40:47.567Z,70
2022-08-26T12:42:15.196Z,41
2022-08-26T12:45:15.234Z,51
2022-08-26T12:48:15.185Z,58
2022-08-26T12:51:15.215Z,47
2022-08-26T12:53:15.250Z,42
2022-08-26T12:56:15.218Z,56
2022-08-26T12:58:15.256Z,53
2022-08-26T13:01:15.298Z,64
2022-08-26T13:03:15.256Z,43
2022-08-26T13:05:15.303Z,40
2022-08-26T13:08:15.196Z,67
2022-08-26T13:10:15.261Z,62
2022-08-26T13:12:15.262Z,49
2022-08-26T13:15:15.207Z,58
2022-08-26T13:18:15.187Z,58
2022-08-26T13:20:15.648Z,72
2022-08-26T13:23:15.378Z,74
2022-08-26T13:25:15.229Z,67
2022-08-26T13:27:15.193Z,86
2022-08-26T13:29:15.208Z,75
2022-08-26T13:32:15.216Z,49
2022-08-26T13:35:15.241Z,90
2022-08-26T13:38:18.551Z,58
2022-08-26T13:40:15.278Z,50
2022-08-26T13:43:15.208Z,72
2022-08-26T13:46:15.275Z,50
2022-08-26T13:48:15.241Z,55
2022-08-26T13:51:15.241Z,59
2022-08-26T13:54:15.193Z,59
2022-08-26T13:56:15.231Z,58
2022-08-26T13:59:15.233Z,92
2022-08-26T14:01:15.347Z,68
2022-08-26T14:04:15.270Z,51
2022-08-26T14:06:15.269Z,91
2022-08-26T14:09:15.228Z,66
2022-08-26T14:12:15.227Z,169
2022-08-26T14:14:15.264Z,52
2022-08-26T14:17:15.257Z,93
2022-08-26T14:19:15.250Z,60
2022-08-26T14:22:15.492Z,55
2022-08-26T14:25:15.257Z,60
2022-08-26T14:28:15.283Z,54
2022-08-26T14:33:15.563Z,57
2022-08-26T14:36:15.283Z,46
2022-08-26T14:38:15.264Z,99
2022-08-26T14:41:15.276Z,92
2022-08-26T14:43:15.327Z,33
2022-08-26T14:46:15.331Z,30
2022-08-26T14:49:15.266Z,61
2022-08-26T14:51:15.250Z,31
2022-08-26T14:53:15.284Z,49
2022-08-26T14:56:16.676Z,38
2022-08-26T14:58:15.291Z,62
2022-08-26T15:01:15.286Z,62
2022-08-26T15:06:15.294Z,36
2022-08-26T15:08:15.329Z,99
2022-08-26T15:11:15.267Z,57
2022-08-26T15:13:15.353Z,76
2022-08-26T15:16:15.362Z,45
2022-08-26T15:18:15.305Z,54
2022-08-26T15:21:15.261Z,49
2022-08-26T15:24:15.314Z,45
2022-08-26T15:27:15.298Z,54
2022-08-26T15:29:15.289Z,49
2022-08-26T15:32:15.313Z,55
2022-08-26T15:35:15.280Z,38
2022-08-26T15:38:15.319Z,47
2022-08-26T15:41:15.303Z,36
2022-08-26T15:44:15.279Z,46
2022-08-26T15:46:15.362Z,58
2022-08-26T15:49:17.570Z,67
2022-08-26T15:51:15.257Z,67
2022-08-26T15:53:15.286Z,46
2022-08-26T15:55:15.272Z,46
2022-08-26T15:57:16.503Z,47
2022-08-26T16:00:15.273Z,86
2022-08-26T16:02:15.336Z,81
2022-08-26T16:04:15.305Z,80
2022-08-26T16:07:15.273Z,160
2022-08-26T16:09:15.714Z,87
2022-08-26T16:15:15.275Z,100
2022-08-26T16:17:15.299Z,93
2022-08-26T16:19:15.355Z,101
2022-08-26T16:22:15.327Z,75
2022-08-26T16:24:15.297Z,59
2022-08-26T16:27:15.266Z,108
2022-08-26T16:29:15.310Z,97
2022-08-26T16:31:15.439Z,66
2022-08-26T16:34:15.315Z,88
2022-08-26T16:37:15.313Z,72
2022-08-26T16:40:15.302Z,83
2022-08-26T16:42:15.314Z,93
2022-08-26T16:44:15.313Z,57
2022-08-26T16:47:15.308Z,68
2022-08-26T16:49:15.319Z,103
2022-08-26T16:52:15.333Z,58
2022-08-26T16:54:15.324Z,101
2022-08-26T16:57:15.363Z,94
2022-08-26T16:59:15.395Z,83
2022-08-26T17:02:15.556Z,75
2022-08-26T17:05:15.351Z,100
2022-08-26T17:08:21.886Z,103
2022-08-26T17:11:15.356Z,84
2022-08-26T17:14:15.329Z,102
2022-08-26T17:17:15.329Z,128
2022-08-26T17:19:15.352Z,89
2022-08-26T17:22:15.349Z,171
2022-08-26T17:25:15.329Z,85
2022-08-26T17:28:15.351Z,84
2022-08-26T17:31:15.369Z,89
2022-08-26T17:33:15.326Z,114
2022-08-26T17:35:15.345Z,130
2022-08-26T17:38:15.341Z,100
2022-08-26T17:41:15.407Z,107
2022-08-26T17:44:15.312Z,94
2022-08-26T17:47:15.330Z,120
2022-08-26T17:49:15.382Z,116
2022-08-26T17:52:15.334Z,146
2022-08-26T17:55:15.339Z,99
2022-08-26T17:58:15.291Z,67
2022-08-26T18:00:15.321Z,75
2022-08-26T18:03:15.332Z,132
2022-08-26T18:06:15.315Z,108
2022-08-26T18:08:15.322Z,85
2022-08-26T18:10:15.353Z,117
2022-08-26T18:12:15.346Z,116
2022-08-26T18:15:15.373Z,106
2022-08-26T18:17:15.380Z,113
2022-08-26T18:20:15.340Z,106
2022-08-26T18:22:15.650Z,126
2022-08-26T18:25:15.374Z,109
2022-08-26T18:27:15.385Z,103
2022-08-26T18:30:16.689Z,120
2022-08-26T18:33:15.359Z,179
2022-08-26T18:36:15.375Z,259
2022-08-26T18:38:15.593Z,104
2022-08-26T18:41:15.374Z,121
2022-08-26T18:43:15.431Z,91
2022-08-26T18:46:15.424Z,125
2022-08-26T18:49:15.400Z,75
2022-08-26T18:52:15.347Z,126
2022-08-26T18:54:15.373Z,92
2022-08-26T18:56:16.657Z,79
2022-08-26T18:59:15.344Z,92
2022-08-26T19:02:15.424Z,93
2022-08-26T19:04:15.654Z,143
2022-08-26T19:07:15.355Z,83
2022-08-26T19:09:15.370Z,100
2022-08-26T19:12:15.351Z,102
2022-08-26T19:15:15.390Z,87
2022-08-26T19:17:15.384Z,112
2022-08-26T19:20:15.395Z,63
2022-08-26T19:23:28.500Z,77
2022-08-26T19:25:15.399Z,83
2022-08-26T19:28:15.883Z,111
2022-08-26T19:31:15.455Z,144
2022-08-26T19:34:15.359Z,121
2022-08-26T19:36:15.377Z,69
2022-08-26T19:38:15.429Z,130
2022-08-26T19:41:15.392Z,94
2022-08-26T19:44:15.390Z,113
2022-08-26T19:47:15.342Z,144
2022-08-26T19:49:15.383Z,75
2022-08-26T19:51:15.392Z,94
2022-08-26T19:53:31.076Z,112
2022-08-26T19:56:15.467Z,102
2022-08-26T19:59:15.394Z,82
2022-08-26T20:01:15.442Z,153
2022-08-26T20:03:15.918Z,123
2022-08-26T20:06:15.422Z,87
2022-08-26T20:08:16.813Z,111
2022-08-26T20:11:15.404Z,91
2022-08-26T20:13:15.417Z,75
2022-08-26T20:16:15.497Z,113
2022-08-26T20:18:15.429Z,155
2022-08-26T20:20:28.407Z,125
2022-08-26T20:23:15.401Z,105
2022-08-26T20:25:15.407Z,123
2022-08-26T20:28:15.427Z,99
2022-08-26T20:31:15.433Z,177
2022-08-26T20:33:15.390Z,101
2022-08-26T20:35:15.394Z,96
2022-08-26T20:38:17.537Z,129
2022-08-26T20:40:15.479Z,91
2022-08-26T20:42:19.963Z,110
2022-08-26T20:45:15.390Z,119
2022-08-26T20:48:15.443Z,118
2022-08-26T20:51:15.390Z,89
2022-08-26T20:54:15.398Z,119
2022-08-26T20:56:15.417Z,357
2022-08-26T20:58:15.451Z,204
2022-08-26T21:01:15.446Z,140
2022-08-26T21:04:15.420Z,110
2022-08-26T21:07:15.385Z,171
2022-08-26T21:22:15.458Z,93
2022-08-26T21:25:15.421Z,122
2022-08-26T21:29:20.186Z,107
2022-08-26T21:30:15.486Z,154
2022-08-26T21:32:15.649Z,164
2022-08-26T21:36:15.714Z,102
2022-08-26T21:39:15.442Z,100
2022-08-26T21:41:15.443Z,125
2022-08-26T21:43:16.230Z,107
2022-08-26T21:45:15.493Z,127
2022-08-26T21:48:15.477Z,122
2022-08-26T21:51:15.411Z,116
2022-08-26T21:53:15.435Z,126
2022-08-26T21:55:15.417Z,132
2022-08-26T21:57:15.447Z,112
2022-08-26T22:00:15.411Z,128
2022-08-26T22:02:15.527Z,116
2022-08-26T22:04:15.419Z,129
2022-08-26T22:06:15.405Z,160
2022-08-26T22:08:15.455Z,122
2022-08-26T22:11:15.420Z,130
2022-08-26T22:13:15.514Z,181
2022-08-26T22:16:15.477Z,154
2022-08-26T22:19:17.076Z,160
2022-08-26T22:22:15.433Z,148
2022-08-26T22:24:15.437Z,119
2022-08-26T22:27:15.465Z,135
2022-08-26T22:30:15.471Z,125
2022-08-26T22:33:15.421Z,106
2022-08-26T22:35:28.665Z,136
2022-08-26T22:38:15.470Z,150
2022-08-26T22:41:15.471Z,126
2022-08-26T22:44:15.434Z,133
2022-08-26T22:46:15.488Z,120
2022-08-26T22:49:15.449Z,157
2022-08-26T22:51:15.500Z,106
2022-08-26T22:54:15.418Z,116
2022-08-26T22:56:15.465Z,136
2022-08-26T22:59:15.462Z,121
2022-08-26T23:01:15.496Z,125
2022-08-26T23:04:15.439Z,153
2022-08-26T23:06:15.481Z,162
2022-08-26T23:09:15.469Z,141
2022-08-26T23:12:15.493Z,148
2022-08-26T23:15:15.497Z,135
2022-08-26T23:18:15.483Z,137
2022-08-26T23:20:15.481Z,144
2022-08-26T23:22:15.520Z,148
2022-08-26T23:24:15.510Z,136
2022-08-26T23:27:15.464Z,156
2022-08-26T23:29:15.488Z,149
2022-08-26T23:31:15.527Z,140
2022-08-26T23:33:15.550Z,109
2022-08-26T23:36:17.897Z,115
2022-08-26T23:39:15.468Z,133
2022-08-26T23:41:15.482Z,146
2022-08-26T23:44:15.515Z,112
2022-08-26T23:47:15.474Z,141
2022-08-26T23:49:15.477Z,146
2022-08-26T23:51:15.879Z,128
2022-08-26T23:54:15.470Z,117
2022-08-26T23:56:15.481Z,152
2022-08-26T23:59:15.444Z,156
